sensor_id;sensor_type;location;lat;lon;timestamp;pressure;altitude;pressure_sealevel;temperature;humidity
28428;BME280;15662;49.128;8.520;2023-02-20T00:01:54;101626.19;;;14.75;50.31
28428;BME280;15662;49.128;8.520;2023-02-20T00:04:24;101610.50;;;14.61;50.60
28428;BME280;15662;49.128;8.520;2023-02-20T00:06:52;101618.41;;;14.65;50.31
28428;BME280;15662;49.128;8.520;2023-02-20T00:09:19;101599.97;;;14.55;50.26
28428;BME280;15662;49.128;8.520;2023-02-20T00:11:47;101620.34;;;14.59;50.32
28428;BME280;15662;49.128;8.520;2023-02-20T00:14:15;101623.94;;;14.56;50.27
28428;BME280;15662;49.128;8.520;2023-02-20T00:16:46;101616.97;;;14.51;50.15
28428;BME280;15662;49.128;8.520;2023-02-20T00:19:15;101627.13;;;14.32;50.41
28428;BME280;15662;49.128;8.520;2023-02-20T00:21:47;101647.38;;;14.40;50.34
28428;BME280;15662;49.128;8.520;2023-02-20T00:24:16;101654.56;;;14.38;50.32
28428;BME280;15662;49.128;8.520;2023-02-20T00:26:50;101654.59;;;14.35;50.18
28428;BME280;15662;49.128;8.520;2023-02-20T00:29:21;101654.66;;;14.32;50.21
28428;BME280;15662;49.128;8.520;2023-02-20T00:31:51;101654.75;;;14.28;50.26
28428;BME280;15662;49.128;8.520;2023-02-20T00:34:22;101646.00;;;14.21;50.19
28428;BME280;15662;49.128;8.520;2023-02-20T00:36:50;101654.88;;;14.22;50.21
28428;BME280;15662;49.128;8.520;2023-02-20T00:39:18;101655.84;;;14.17;50.19
28428;BME280;15662;49.128;8.520;2023-02-20T00:41:46;101654.19;;;14.12;50.23
28428;BME280;15662;49.128;8.520;2023-02-20T00:44:16;101658.69;;;14.08;50.38
28428;BME280;15662;49.128;8.520;2023-02-20T00:46:43;101641.94;;;14.02;50.40
28428;BME280;15662;49.128;8.520;2023-02-20T00:49:15;101650.13;;;13.94;50.41
28428;BME280;15662;49.128;8.520;2023-02-20T00:51:48;101659.00;;;13.94;50.54
28428;BME280;15662;49.128;8.520;2023-02-20T00:54:16;101648.50;;;13.84;50.52
28428;BME280;15662;49.128;8.520;2023-02-20T00:56:45;101646.75;;;13.84;50.50
28428;BME280;15662;49.128;8.520;2023-02-20T00:59:13;101634.47;;;13.76;50.47
28428;BME280;15662;49.128;8.520;2023-02-20T01:01:41;101641.50;;;13.78;50.49
28428;BME280;15662;49.128;8.520;2023-02-20T01:04:10;101643.34;;;13.76;50.61
28428;BME280;15662;49.128;8.520;2023-02-20T01:06:38;101638.06;;;13.73;50.56
28428;BME280;15662;49.128;8.520;2023-02-20T01:09:06;101634.56;;;13.71;50.60
28428;BME280;15662;49.128;8.520;2023-02-20T01:11:34;101628.38;;;13.67;50.70
28428;BME280;15662;49.128;8.520;2023-02-20T01:14:03;101626.63;;;13.66;50.74
28428;BME280;15662;49.128;8.520;2023-02-20T01:16:31;101633.78;;;13.64;50.68
28428;BME280;15662;49.128;8.520;2023-02-20T01:18:59;101625.84;;;13.61;50.60
28428;BME280;15662;49.128;8.520;2023-02-20T01:21:27;101626.72;;;13.62;50.68
28428;BME280;15662;49.128;8.520;2023-02-20T01:23:58;101625.09;;;13.55;50.67
28428;BME280;15662;49.128;8.520;2023-02-20T01:26:27;101629.50;;;13.54;50.76
28428;BME280;15662;49.128;8.520;2023-02-20T01:28:56;101621.63;;;13.50;50.61
28428;BME280;15662;49.128;8.520;2023-02-20T01:31:24;101628.72;;;13.49;50.71
28428;BME280;15662;49.128;8.520;2023-02-20T01:33:52;101621.75;;;13.42;50.66
28428;BME280;15662;49.128;8.520;2023-02-20T01:36:20;101632.31;;;13.47;51.03
28428;BME280;15662;49.128;8.520;2023-02-20T01:38:50;101634.06;;;13.48;50.78
28428;BME280;15662;49.128;8.520;2023-02-20T01:41:23;101626.13;;;13.46;50.57
28428;BME280;15662;49.128;8.520;2023-02-20T01:43:51;101628.91;;;13.40;50.78
28428;BME280;15662;49.128;8.520;2023-02-20T01:49:10;101624.44;;;13.40;50.67
28428;BME280;15662;49.128;8.520;2023-02-20T01:51:58;101622.66;;;13.39;50.75
28428;BME280;15662;49.128;8.520;2023-02-20T01:54:27;101620.13;;;13.33;50.81
28428;BME280;15662;49.128;8.520;2023-02-20T01:56:59;101610.50;;;13.26;50.81
28428;BME280;15662;49.128;8.520;2023-02-20T01:59:32;101614.78;;;13.33;50.89
28428;BME280;15662;49.128;8.520;2023-02-20T02:02:04;101611.28;;;13.30;50.67
28428;BME280;15662;49.128;8.520;2023-02-20T02:04:35;101614.88;;;13.30;50.49
28428;BME280;15662;49.128;8.520;2023-02-20T02:07:03;101604.28;;;13.24;50.75
28428;BME280;15662;49.128;8.520;2023-02-20T02:12:07;101602.50;;;13.25;50.58
28428;BME280;15662;49.128;8.520;2023-02-20T02:14:36;101585.69;;;13.21;50.86
28428;BME280;15662;49.128;8.520;2023-02-20T02:17:36;101591.94;;;13.18;50.83
28428;BME280;15662;49.128;8.520;2023-02-20T02:37:55;101592.63;;;12.77;51.30
28428;BME280;15662;49.128;8.520;2023-02-20T02:40:40;101590.78;;;12.79;51.49
28428;BME280;15662;49.128;8.520;2023-02-20T02:43:22;101592.66;;;12.74;51.62
28428;BME280;15662;49.128;8.520;2023-02-20T02:45:56;101597.97;;;12.74;51.58
28428;BME280;15662;49.128;8.520;2023-02-20T02:48:34;101603.34;;;12.71;51.63
28428;BME280;15662;49.128;8.520;2023-02-20T02:51:16;101603.28;;;12.74;51.33
28428;BME280;15662;49.128;8.520;2023-02-20T02:57:24;101589.16;;;12.71;51.10
28428;BME280;15662;49.128;8.520;2023-02-20T03:00:08;101581.22;;;12.68;51.28
28428;BME280;15662;49.128;8.520;2023-02-20T03:05:30;101581.16;;;12.71;51.46
28428;BME280;15662;49.128;8.520;2023-02-20T03:11:11;101573.28;;;12.64;51.57
28428;BME280;15662;49.128;8.520;2023-02-20T03:13:49;101576.13;;;12.54;51.56
28428;BME280;15662;49.128;8.520;2023-02-20T03:16:50;101576.97;;;12.56;51.62
28428;BME280;15662;49.128;8.520;2023-02-20T03:19:36;101582.31;;;12.54;51.44
28428;BME280;15662;49.128;8.520;2023-02-20T03:22:45;101569.94;;;12.50;51.42
28428;BME280;15662;49.128;8.520;2023-02-20T03:25:30;101575.34;;;12.47;51.72
28428;BME280;15662;49.128;8.520;2023-02-20T03:28:10;101581.56;;;12.45;51.68
28428;BME280;15662;49.128;8.520;2023-02-20T03:31:00;101578.06;;;12.41;51.55
28428;BME280;15662;49.128;8.520;2023-02-20T03:34:03;101570.22;;;12.30;51.94
28428;BME280;15662;49.128;8.520;2023-02-20T03:36:59;101571.06;;;12.34;52.12
28428;BME280;15662;49.128;8.520;2023-02-20T03:39:52;101573.81;;;12.28;52.26
28428;BME280;15662;49.128;8.520;2023-02-20T03:42:45;101566.75;;;12.25;52.23
28428;BME280;15662;49.128;8.520;2023-02-20T03:45:38;101568.56;;;12.23;52.42
28428;BME280;15662;49.128;8.520;2023-02-20T03:48:19;101570.31;;;12.24;52.53
28428;BME280;15662;49.128;8.520;2023-02-20T03:50:48;101566.78;;;12.24;52.43
28428;BME280;15662;49.128;8.520;2023-02-20T03:53:17;101572.06;;;12.25;52.41
28428;BME280;15662;49.128;8.520;2023-02-20T03:55:47;101572.94;;;12.26;52.72
28428;BME280;15662;49.128;8.520;2023-02-20T03:58:19;101568.53;;;12.25;52.34
28428;BME280;15662;49.128;8.520;2023-02-20T04:00:53;101570.28;;;12.26;52.61
28428;BME280;15662;49.128;8.520;2023-02-20T04:03:28;101568.50;;;12.26;52.72
28428;BME280;15662;49.128;8.520;2023-02-20T04:05:58;101563.28;;;12.22;52.64
28428;BME280;15662;49.128;8.520;2023-02-20T04:08:57;101573.81;;;12.28;52.55
28428;BME280;15662;49.128;8.520;2023-02-20T04:11:44;101565.91;;;12.23;52.66
28428;BME280;15662;49.128;8.520;2023-02-20T04:14:18;101571.25;;;12.22;52.81
28428;BME280;15662;49.128;8.520;2023-02-20T04:16:57;101578.31;;;12.21;52.55
28428;BME280;15662;49.128;8.520;2023-02-20T04:19:26;101567.78;;;12.15;53.02
28428;BME280;15662;49.128;8.520;2023-02-20T04:22:03;101568.59;;;12.20;52.70
28428;BME280;15662;49.128;8.520;2023-02-20T04:24:43;101581.00;;;12.20;52.68
28428;BME280;15662;49.128;8.520;2023-02-20T04:27:15;101567.81;;;12.13;52.69
28428;BME280;15662;49.128;8.520;2023-02-20T04:29:50;101592.59;;;12.14;52.97
28428;BME280;15662;49.128;8.520;2023-02-20T04:32:18;101581.06;;;12.15;52.61
28428;BME280;15662;49.128;8.520;2023-02-20T04:34:47;101574.00;;;12.14;52.84
28428;BME280;15662;49.128;8.520;2023-02-20T04:37:19;101578.41;;;12.15;52.90
28428;BME280;15662;49.128;8.520;2023-02-20T04:39:51;101581.13;;;12.10;52.98
28428;BME280;15662;49.128;8.520;2023-02-20T04:42:19;101576.72;;;12.09;52.89
28428;BME280;15662;49.128;8.520;2023-02-20T04:44:49;101578.53;;;12.07;52.69
28428;BME280;15662;49.128;8.520;2023-02-20T04:47:17;101581.16;;;12.09;52.84
28428;BME280;15662;49.128;8.520;2023-02-20T04:49:45;101583.84;;;12.06;53.09
28428;BME280;15662;49.128;8.520;2023-02-20T04:52:18;101580.28;;;12.08;53.21
28428;BME280;15662;49.128;8.520;2023-02-20T04:54:46;101582.06;;;12.06;52.97
28428;BME280;15662;49.128;8.520;2023-02-20T04:57:17;101584.69;;;12.09;52.95
28428;BME280;15662;49.128;8.520;2023-02-20T04:59:45;101581.19;;;12.07;52.98
28428;BME280;15662;49.128;8.520;2023-02-20T05:02:14;101572.31;;;12.08;52.91
28428;BME280;15662;49.128;8.520;2023-02-20T05:04:42;101575.94;;;12.03;53.25
28428;BME280;15662;49.128;8.520;2023-02-20T05:07:10;101571.44;;;12.06;53.16
28428;BME280;15662;49.128;8.520;2023-02-20T05:09:38;101557.28;;;12.04;53.10
28428;BME280;15662;49.128;8.520;2023-02-20T05:12:09;101569.69;;;12.05;52.90
28428;BME280;15662;49.128;8.520;2023-02-20T05:14:37;101571.47;;;12.05;52.76
28428;BME280;15662;49.128;8.520;2023-02-20T05:17:05;101571.38;;;12.11;52.94
28428;BME280;15662;49.128;8.520;2023-02-20T05:19:32;101574.91;;;12.11;53.03
28428;BME280;15662;49.128;8.520;2023-02-20T05:22:00;101577.63;;;12.08;52.96
28428;BME280;15662;49.128;8.520;2023-02-20T05:24:49;101580.28;;;12.08;52.97
28428;BME280;15662;49.128;8.520;2023-02-20T05:27:20;101575.88;;;12.06;52.87
28428;BME280;15662;49.128;8.520;2023-02-20T05:29:52;101575.00;;;12.05;52.99
28428;BME280;15662;49.128;8.520;2023-02-20T05:32:23;101570.59;;;12.04;52.87
28428;BME280;15662;49.128;8.520;2023-02-20T05:34:51;101576.84;;;12.00;52.83
28428;BME280;15662;49.128;8.520;2023-02-20T05:37:20;101580.31;;;12.05;52.97
28428;BME280;15662;49.128;8.520;2023-02-20T05:39:48;101581.22;;;12.04;52.85
28428;BME280;15662;49.128;8.520;2023-02-20T05:42:17;101578.53;;;12.06;52.94
28428;BME280;15662;49.128;8.520;2023-02-20T05:44:45;101582.09;;;12.05;52.79
28428;BME280;15662;49.128;8.520;2023-02-20T05:47:13;101582.97;;;12.07;52.67
28428;BME280;15662;49.128;8.520;2023-02-20T05:49:41;101581.19;;;12.07;52.63
28428;BME280;15662;49.128;8.520;2023-02-20T05:52:11;101589.97;;;12.11;52.52
28428;BME280;15662;49.128;8.520;2023-02-20T05:54:40;101590.00;;;12.09;52.42
28428;BME280;15662;49.128;8.520;2023-02-20T05:57:10;101561.75;;;12.04;52.38
28428;BME280;15662;49.128;8.520;2023-02-20T05:59:41;101555.50;;;12.05;52.60
28428;BME280;15662;49.128;8.520;2023-02-20T06:02:08;101555.56;;;12.00;52.26
28428;BME280;15662;49.128;8.520;2023-02-20T06:04:36;101573.25;;;12.04;52.54
28428;BME280;15662;49.128;8.520;2023-02-20T06:07:07;101568.81;;;12.02;52.41
28428;BME280;15662;49.128;8.520;2023-02-20T06:09:41;101551.19;;;11.98;52.31
28428;BME280;15662;49.128;8.520;2023-02-20T06:12:10;101560.09;;;11.94;52.44
28428;BME280;15662;49.128;8.520;2023-02-20T06:14:38;101568.06;;;11.94;52.77
28428;BME280;15662;49.128;8.520;2023-02-20T06:17:06;101578.63;;;11.97;52.63
28428;BME280;15662;49.128;8.520;2023-02-20T06:19:35;101568.03;;;11.95;52.32
28428;BME280;15662;49.128;8.520;2023-02-20T06:22:03;101569.81;;;11.95;52.46
28428;BME280;15662;49.128;8.520;2023-02-20T06:24:31;101570.75;;;11.91;52.63
28428;BME280;15662;49.128;8.520;2023-02-20T06:26:59;101565.50;;;11.86;52.63
28428;BME280;15662;49.128;8.520;2023-02-20T06:29:27;101567.28;;;11.81;52.56
28428;BME280;15662;49.128;8.520;2023-02-20T06:31:58;101572.59;;;11.85;52.50
28428;BME280;15662;49.128;8.520;2023-02-20T06:34:26;101571.75;;;11.83;52.57
28428;BME280;15662;49.128;8.520;2023-02-20T06:37:02;101565.50;;;11.81;52.97
28428;BME280;15662;49.128;8.520;2023-02-20T06:39:31;101581.44;;;11.86;52.67
28428;BME280;15662;49.128;8.520;2023-02-20T06:42:00;101565.50;;;11.81;52.58
28428;BME280;15662;49.128;8.520;2023-02-20T06:44:27;101573.50;;;11.84;52.96
28428;BME280;15662;49.128;8.520;2023-02-20T06:46:55;101574.34;;;11.86;52.88
28428;BME280;15662;49.128;8.520;2023-02-20T06:49:23;101573.50;;;11.84;52.75
28428;BME280;15662;49.128;8.520;2023-02-20T06:51:52;101581.44;;;11.86;52.99
28428;BME280;15662;49.128;8.520;2023-02-20T06:54:20;101579.66;;;11.86;53.07
28428;BME280;15662;49.128;8.520;2023-02-20T06:56:48;101579.69;;;11.85;53.18
28428;BME280;15662;49.128;8.520;2023-02-20T06:59:17;101574.38;;;11.80;53.01
28428;BME280;15662;49.128;8.520;2023-02-20T07:01:45;101574.41;;;11.79;53.34
28428;BME280;15662;49.128;8.520;2023-02-20T07:04:23;101586.78;;;11.84;53.09
28428;BME280;15662;49.128;8.520;2023-02-20T07:06:54;101568.28;;;11.74;53.40
28428;BME280;15662;49.128;8.520;2023-02-20T07:09:22;101578.78;;;11.81;53.25
28428;BME280;15662;49.128;8.520;2023-02-20T07:11:52;101581.47;;;11.84;53.35
28428;BME280;15662;49.128;8.520;2023-02-20T07:14:24;101573.50;;;11.84;53.48
28428;BME280;15662;49.128;8.520;2023-02-20T07:16:52;101574.38;;;11.85;53.32
28428;BME280;15662;49.128;8.520;2023-02-20T07:19:19;101569.94;;;11.84;53.83
28428;BME280;15662;49.128;8.520;2023-02-20T07:21:47;101583.16;;;11.90;53.81
28428;BME280;15662;49.128;8.520;2023-02-20T07:24:16;101582.31;;;11.88;54.01
28428;BME280;15662;49.128;8.520;2023-02-20T07:26:43;101597.31;;;11.92;53.99
28428;BME280;15662;49.128;8.520;2023-02-20T07:29:12;101592.00;;;11.92;53.85
28428;BME280;15662;49.128;8.520;2023-02-20T07:31:40;101609.69;;;11.95;54.05
28428;BME280;15662;49.128;8.520;2023-02-20T07:34:09;101596.41;;;11.93;53.93
28428;BME280;15662;49.128;8.520;2023-02-20T07:36:40;101608.69;;;12.02;54.03
28428;BME280;15662;49.128;8.520;2023-02-20T07:39:11;101611.31;;;12.05;54.00
28428;BME280;15662;49.128;8.520;2023-02-20T07:41:39;101612.19;;;12.05;54.13
28428;BME280;15662;49.128;8.520;2023-02-20T07:44:23;101607.78;;;12.04;53.96
28428;BME280;15662;49.128;8.520;2023-02-20T07:46:51;101600.69;;;12.05;54.05
28428;BME280;15662;49.128;8.520;2023-02-20T07:49:19;101598.94;;;12.04;54.24
28428;BME280;15662;49.128;8.520;2023-02-20T07:51:47;101605.13;;;12.04;54.49
28428;BME280;15662;49.128;8.520;2023-02-20T07:54:15;101613.88;;;12.14;54.66
28428;BME280;15662;49.128;8.520;2023-02-20T07:56:43;101591.75;;;12.12;54.55
28428;BME280;15662;49.128;8.520;2023-02-20T07:59:11;101590.00;;;12.09;54.60
28428;BME280;15662;49.128;8.520;2023-02-20T08:01:39;101596.97;;;12.20;54.55
28428;BME280;15662;49.128;8.520;2023-02-20T08:04:07;101591.69;;;12.18;54.79
28428;BME280;15662;49.128;8.520;2023-02-20T08:06:35;101587.22;;;12.22;54.49
28428;BME280;15662;49.128;8.520;2023-02-20T08:09:05;101595.97;;;12.28;54.59
28428;BME280;15662;49.128;8.520;2023-02-20T08:11:35;101578.22;;;12.30;54.44
28428;BME280;15662;49.128;8.520;2023-02-20T08:14:04;101581.72;;;12.34;54.60
28428;BME280;15662;49.128;8.520;2023-02-20T08:16:36;101594.88;;;12.43;54.62
28428;BME280;15662;49.128;8.520;2023-02-20T08:19:06;101600.13;;;12.49;54.55
28428;BME280;15662;49.128;8.520;2023-02-20T08:21:34;101586.81;;;12.49;54.63
28428;BME280;15662;49.128;8.520;2023-02-20T08:24:03;101595.50;;;12.60;54.43
28428;BME280;15662;49.128;8.520;2023-02-20T08:26:34;101581.34;;;12.61;54.55
28428;BME280;15662;49.128;8.520;2023-02-20T08:29:02;101581.16;;;12.71;54.59
28428;BME280;15662;49.128;8.520;2023-02-20T08:31:31;101580.22;;;12.76;54.69
28428;BME280;15662;49.128;8.520;2023-02-20T08:33:59;101582.72;;;12.85;54.38
28428;BME280;15662;49.128;8.520;2023-02-20T08:36:28;101575.53;;;12.92;54.49
28428;BME280;15662;49.128;8.520;2023-02-20T08:38:56;101578.91;;;13.02;54.26
28428;BME280;15662;49.128;8.520;2023-02-20T08:41:24;101578.72;;;13.12;54.22
28428;BME280;15662;49.128;8.520;2023-02-20T08:43:52;101583.00;;;13.24;54.38
28428;BME280;15662;49.128;8.520;2023-02-20T08:46:24;101576.50;;;13.39;54.13
28428;BME280;15662;49.128;8.520;2023-02-20T08:48:54;101578.00;;;13.55;54.15
28428;BME280;15662;49.128;8.520;2023-02-20T08:51:22;101564.47;;;13.66;54.05
28428;BME280;15662;49.128;8.520;2023-02-20T08:53:50;101561.47;;;13.83;53.94
28428;BME280;15662;49.128;8.520;2023-02-20T08:56:38;101556.59;;;14.03;53.77
28428;BME280;15662;49.128;8.520;2023-02-20T08:59:05;101562.66;;;14.11;53.69
28428;BME280;15662;49.128;8.520;2023-02-20T09:01:34;101565.03;;;14.25;53.35
28428;BME280;15662;49.128;8.520;2023-02-20T09:04:02;101560.47;;;14.30;52.98
28428;BME280;15662;49.128;8.520;2023-02-20T09:06:29;101566.44;;;14.41;52.96
28428;BME280;15662;49.128;8.520;2023-02-20T09:08:57;101564.53;;;14.46;52.53
28428;BME280;15662;49.128;8.520;2023-02-20T09:11:25;101552.94;;;14.51;51.96
28428;BME280;15662;49.128;8.520;2023-02-20T09:13:53;101559.22;;;14.46;51.93
28428;BME280;15662;49.128;8.520;2023-02-20T09:16:23;101562.78;;;14.49;51.92
28428;BME280;15662;49.128;8.520;2023-02-20T09:18:51;101545.97;;;14.42;51.80
28428;BME280;15662;49.128;8.520;2023-02-20T09:21:24;101552.16;;;14.44;51.52
28428;BME280;15662;49.128;8.520;2023-02-20T09:23:52;101546.88;;;14.41;51.49
28428;BME280;15662;49.128;8.520;2023-02-20T09:26:20;101543.50;;;14.34;51.50
28428;BME280;15662;49.128;8.520;2023-02-20T09:28:48;101543.31;;;14.42;51.59
28428;BME280;15662;49.128;8.520;2023-02-20T09:31:18;101544.06;;;14.47;51.55
28428;BME280;15662;49.128;8.520;2023-02-20T09:33:46;101541.38;;;14.50;51.59
28428;BME280;15662;49.128;8.520;2023-02-20T09:36:18;101538.66;;;14.53;51.42
28428;BME280;15662;49.128;8.520;2023-02-20T09:38:46;101536.75;;;14.58;51.34
28428;BME280;15662;49.128;8.520;2023-02-20T09:41:44;101535.63;;;14.68;50.92
28428;BME280;15662;49.128;8.520;2023-02-20T09:45:05;101517.31;;;14.53;50.88
28428;BME280;15662;49.128;8.520;2023-02-20T09:48:43;101525.72;;;14.72;51.10
28428;BME280;15662;49.128;8.520;2023-02-20T09:51:07;101525.53;;;14.80;51.08
28428;BME280;15662;49.128;8.520;2023-02-20T09:54:46;101526.25;;;14.88;50.46
28428;BME280;15662;49.128;8.520;2023-02-20T09:56:58;101519.94;;;14.90;50.52
28428;BME280;15662;49.128;8.520;2023-02-20T10:02:28;101514.31;;;15.01;50.14
28428;BME280;15662;49.128;8.520;2023-02-20T10:05:01;101523.06;;;15.08;50.49
28428;BME280;15662;49.128;8.520;2023-02-20T10:07:36;101509.66;;;15.09;50.12
28428;BME280;15662;49.128;8.520;2023-02-20T10:10:34;101520.09;;;15.18;49.72
28428;BME280;15662;49.128;8.520;2023-02-20T10:13:29;101510.25;;;15.20;49.61
28428;BME280;15662;49.128;8.520;2023-02-20T10:19:13;101500.31;;;15.26;49.61
28428;BME280;15662;49.128;8.520;2023-02-20T10:22:07;101486.22;;;15.20;49.23
28428;BME280;15662;49.128;8.520;2023-02-20T10:28:09;101493.97;;;15.30;49.41
28428;BME280;15662;49.128;8.520;2023-02-20T10:34:07;101496.53;;;15.34;49.33
28428;BME280;15662;49.128;8.520;2023-02-20T10:36:47;101494.47;;;15.44;49.12
28428;BME280;15662;49.128;8.520;2023-02-20T10:39:20;101498.84;;;15.46;48.88
28428;BME280;15662;49.128;8.520;2023-02-20T10:42:19;101496.88;;;15.53;48.59
28428;BME280;15662;49.128;8.520;2023-02-20T10:45:11;101494.97;;;15.58;48.74
28428;BME280;15662;49.128;8.520;2023-02-20T10:47:49;101480.63;;;15.61;48.65
28428;BME280;15662;49.128;8.520;2023-02-20T10:50:26;101483.25;;;15.64;48.77
28428;BME280;15662;49.128;8.520;2023-02-20T10:53:45;101481.38;;;15.67;48.53
28428;BME280;15662;49.128;8.520;2023-02-20T10:59:56;101478.50;;;15.73;48.58
28428;BME280;15662;49.128;8.520;2023-02-20T11:02:36;101473.09;;;15.75;48.65
28428;BME280;15662;49.128;8.520;2023-02-20T11:05:11;101471.22;;;15.79;48.27
28428;BME280;15662;49.128;8.520;2023-02-20T11:07:40;101472.94;;;15.81;48.38
28428;BME280;15662;49.128;8.520;2023-02-20T11:10:09;101464.75;;;15.86;48.40
28428;BME280;15662;49.128;8.520;2023-02-20T11:13:12;101466.47;;;15.88;48.10
28428;BME280;15662;49.128;8.520;2023-02-20T11:15:43;101456.59;;;15.90;48.23
28428;BME280;15662;49.128;8.520;2023-02-20T11:18:32;101454.72;;;15.94;48.12
28428;BME280;15662;49.128;8.520;2023-02-20T11:21:01;101433.38;;;15.92;48.07
28428;BME280;15662;49.128;8.520;2023-02-20T11:23:42;101434.91;;;16.01;48.00
28428;BME280;15662;49.128;8.520;2023-02-20T11:28:59;101425.53;;;16.14;47.96
28428;BME280;15662;49.128;8.520;2023-02-20T11:31:29;101429.97;;;16.15;47.97
28428;BME280;15662;49.128;8.520;2023-02-20T11:34:00;101422.53;;;16.25;47.89
28428;BME280;15662;49.128;8.520;2023-02-20T11:36:47;101417.91;;;16.30;47.69
28428;BME280;15662;49.128;8.520;2023-02-20T11:39:27;101422.06;;;16.39;47.97
28428;BME280;15662;49.128;8.520;2023-02-20T11:42:12;101406.00;;;16.40;47.89
28428;BME280;15662;49.128;8.520;2023-02-20T11:44:43;101396.25;;;16.38;47.80
28428;BME280;15662;49.128;8.520;2023-02-20T11:47:26;101394.00;;;16.52;47.52
28428;BME280;15662;49.128;8.520;2023-02-20T11:50:18;101392.97;;;16.56;47.38
28428;BME280;15662;49.128;8.520;2023-02-20T11:53:03;101379.41;;;16.61;47.12
28428;BME280;15662;49.128;8.520;2023-02-20T11:55:33;101358.16;;;16.56;47.15
28428;BME280;15662;49.128;8.520;2023-02-20T11:58:01;101372.13;;;16.64;46.90
28428;BME280;15662;49.128;8.520;2023-02-20T12:00:48;101350.78;;;16.63;46.61
28428;BME280;15662;49.128;8.520;2023-02-20T12:03:28;101354.06;;;16.71;46.91
28428;BME280;15662;49.128;8.520;2023-02-20T12:05:57;101357.69;;;16.70;47.18
28428;BME280;15662;49.128;8.520;2023-02-20T12:08:57;101352.06;;;16.77;46.23
28428;BME280;15662;49.128;8.520;2023-02-20T12:11:29;101328.97;;;16.75;46.63
28428;BME280;15662;49.128;8.520;2023-02-20T12:13:59;101341.28;;;16.81;46.38
28428;BME280;15662;49.128;8.520;2023-02-20T12:22:33;101343.63;;;16.90;45.90
28428;BME280;15662;49.128;8.520;2023-02-20T12:25:26;101331.13;;;16.89;45.72
28428;BME280;15662;49.128;8.520;2023-02-20T12:37:16;101329.66;;;17.05;45.78
28428;BME280;15662;49.128;8.520;2023-02-20T12:43:04;101317.00;;;17.09;45.34
28428;BME280;15662;49.128;8.520;2023-02-20T12:54:30;101298.66;;;17.21;45.38
28428;BME280;15662;49.128;8.520;2023-02-20T12:57:57;101286.31;;;17.17;45.50
28428;BME280;15662;49.128;8.520;2023-02-20T13:00:53;101271.97;;;17.18;45.86
28428;BME280;15662;49.128;8.520;2023-02-20T13:05:52;101269.78;;;17.30;45.63
28428;BME280;15662;49.128;8.520;2023-02-20T13:10:58;101275.66;;;17.39;45.21
28428;BME280;15662;49.128;8.520;2023-02-20T13:16:43;101263.81;;;17.45;45.27
28428;BME280;15662;49.128;8.520;2023-02-20T13:19:43;101264.59;;;17.47;45.30
28428;BME280;15662;49.128;8.520;2023-02-20T13:22:16;101260.94;;;17.49;45.46
28428;BME280;15662;49.128;8.520;2023-02-20T13:24:45;101256.19;;;17.56;45.40
28428;BME280;15662;49.128;8.520;2023-02-20T13:27:30;101250.75;;;17.58;44.92
28428;BME280;15662;49.128;8.520;2023-02-20T13:30:17;101239.13;;;17.59;45.14
28428;BME280;15662;49.128;8.520;2023-02-20T13:32:46;101230.38;;;17.53;45.09
28428;BME280;15662;49.128;8.520;2023-02-20T13:35:54;101236.31;;;17.62;44.71
28428;BME280;15662;49.128;8.520;2023-02-20T13:38:26;101223.75;;;17.62;44.90
28428;BME280;15662;49.128;8.520;2023-02-20T13:54:11;101202.19;;;17.87;43.17
28428;BME280;15662;49.128;8.520;2023-02-20T13:56:53;101195.91;;;17.88;43.24
28428;BME280;15662;49.128;8.520;2023-02-20T13:59:27;101185.22;;;17.87;43.11
28428;BME280;15662;49.128;8.520;2023-02-20T14:05:26;101172.75;;;17.86;42.51
28428;BME280;15662;49.128;8.520;2023-02-20T14:07:54;101183.22;;;17.92;42.98
28428;BME280;15662;49.128;8.520;2023-02-20T14:10:37;101185.63;;;17.98;42.35
28428;BME280;15662;49.128;8.520;2023-02-20T14:13:13;101174.84;;;17.99;42.42
28428;BME280;15662;49.128;8.520;2023-02-20T14:15:57;101161.25;;;18.04;42.42
28428;BME280;15662;49.128;8.520;2023-02-20T14:18:32;101173.78;;;18.03;42.65
28428;BME280;15662;49.128;8.520;2023-02-20T14:21:16;101162.84;;;18.08;42.13
28428;BME280;15662;49.128;8.520;2023-02-20T14:23:47;101157.53;;;18.07;41.98
28428;BME280;15662;49.128;8.520;2023-02-20T14:26:32;101147.63;;;18.09;41.59
28428;BME280;15662;49.128;8.520;2023-02-20T14:29:01;101143.31;;;18.04;41.89
28428;BME280;15662;49.128;8.520;2023-02-20T14:31:33;101140.25;;;18.14;41.73
28428;BME280;15662;49.128;8.520;2023-02-20T14:34:20;101145.59;;;18.14;41.65
28428;BME280;15662;49.128;8.520;2023-02-20T14:37:33;101152.63;;;18.16;41.73
28428;BME280;15662;49.128;8.520;2023-02-20T14:40:36;101137.41;;;18.17;41.84
28428;BME280;15662;49.128;8.520;2023-02-20T14:43:25;101134.78;;;18.15;41.67
28428;BME280;15662;49.128;8.520;2023-02-20T14:46:06;101141.91;;;18.16;41.52
28428;BME280;15662;49.128;8.520;2023-02-20T14:48:36;101118.09;;;18.09;41.56
28428;BME280;15662;49.128;8.520;2023-02-20T14:51:20;101131.97;;;18.18;41.82
28428;BME280;15662;49.128;8.520;2023-02-20T14:54:24;101126.41;;;18.23;41.91
28428;BME280;15662;49.128;8.520;2023-02-20T14:57:18;101139.88;;;18.21;42.04
28428;BME280;15662;49.128;8.520;2023-02-20T15:00:36;101135.25;;;18.25;41.94
28428;BME280;15662;49.128;8.520;2023-02-20T15:03:28;101126.34;;;18.24;42.06
28428;BME280;15662;49.128;8.520;2023-02-20T15:06:18;101110.44;;;18.20;41.95
28428;BME280;15662;49.128;8.520;2023-02-20T15:08:56;101112.72;;;18.29;41.46
28428;BME280;15662;49.128;8.520;2023-02-20T15:11:25;101110.88;;;18.29;41.85
28428;BME280;15662;49.128;8.520;2023-02-20T15:14:25;101098.41;;;18.28;41.53
28428;BME280;15662;49.128;8.520;2023-02-20T15:25:52;101074.69;;;18.19;41.64